createdAt,value
2024-02-29T00:00:47.579Z,12.45
2024-02-29T00:03:16.591Z,12.87
2024-02-29T00:05:46.034Z,11.68
2024-02-29T00:08:19.933Z,10.45
2024-02-29T00:10:48.772Z,10.18
2024-02-29T00:13:18.794Z,10.75
2024-02-29T00:15:47.363Z,11.20
2024-02-29T00:18:25.862Z,10.80
2024-02-29T00:20:54.440Z,10.95
2024-02-29T00:23:24.936Z,10.93
2024-02-29T00:25:54.114Z,10.88
2024-02-29T00:28:24.260Z,10.70
2024-02-29T00:30:52.934Z,10.25
2024-02-29T00:33:22.705Z,10.40
2024-02-29T00:35:55.448Z,10.27
2024-02-29T00:38:26.568Z,11.23
2024-02-29T00:40:57.604Z,9.97
2024-02-29T00:43:28.505Z,10.63
2024-02-29T00:46:21.432Z,9.60
2024-02-29T00:48:51.224Z,9.57
2024-02-29T00:51:20.774Z,11.15
2024-02-29T00:53:50.645Z,10.43
2024-02-29T00:56:25.033Z,8.35
2024-02-29T00:58:58.682Z,10.20
2024-02-29T01:01:29.547Z,8.85
2024-02-29T01:03:58.103Z,10.45
2024-02-29T01:06:27.736Z,10.00
2024-02-29T01:08:56.715Z,9.93
2024-02-29T01:11:25.258Z,10.32
2024-02-29T01:13:59.002Z,10.15
2024-02-29T01:16:27.658Z,8.88
2024-02-29T01:18:59.047Z,8.93
2024-02-29T01:21:29.868Z,9.35
2024-02-29T01:24:00.042Z,9.00
2024-02-29T01:26:30.789Z,9.23
2024-02-29T01:29:05.699Z,8.75
2024-02-29T01:31:35.142Z,9.23
2024-02-29T01:34:04.465Z,9.57
2024-02-29T01:36:37.347Z,9.73
2024-02-29T01:39:07.452Z,9.20
2024-02-29T01:41:36.820Z,9.40
2024-02-29T01:44:06.842Z,8.83
2024-02-29T01:46:36.028Z,8.77
2024-02-29T01:49:04.978Z,8.07
2024-02-29T01:51:35.792Z,9.30
2024-02-29T01:54:07.497Z,8.68
2024-02-29T01:56:39.603Z,8.10
2024-02-29T01:59:10.037Z,8.82
2024-02-29T02:01:40.275Z,7.35
2024-02-29T02:04:10.398Z,8.50
2024-02-29T02:06:39.839Z,9.15
2024-02-29T02:09:12.048Z,9.30
2024-02-29T02:11:40.703Z,8.63
2024-02-29T02:14:26.419Z,8.95
2024-02-29T02:17:03.242Z,8.50
2024-02-29T02:19:34.586Z,9.68
2024-02-29T02:22:11.867Z,8.50
2024-02-29T02:24:40.338Z,8.95
2024-02-29T02:27:12.680Z,8.00
2024-02-29T02:29:40.967Z,8.50
2024-02-29T02:32:09.741Z,8.50
2024-02-29T02:34:38.184Z,8.03
2024-02-29T02:37:08.427Z,9.40
2024-02-29T02:39:37.231Z,8.45
2024-02-29T02:42:06.611Z,8.70
2024-02-29T02:44:35.380Z,7.63
2024-02-29T02:47:04.785Z,8.03
2024-02-29T02:49:33.061Z,8.90
2024-02-29T02:52:03.534Z,7.50
2024-02-29T02:54:33.426Z,8.20
2024-02-29T02:57:01.776Z,8.27
2024-02-29T02:59:31.691Z,8.17
2024-02-29T03:02:00.243Z,8.55
2024-02-29T03:04:30.087Z,8.15
2024-02-29T03:06:59.606Z,8.50
2024-02-29T03:09:30.255Z,7.72
2024-02-29T03:12:01.999Z,9.30
2024-02-29T03:14:31.682Z,8.30
2024-02-29T03:17:00.580Z,7.75
2024-02-29T03:19:29.272Z,8.93
2024-02-29T03:21:57.667Z,8.70
2024-02-29T03:24:27.357Z,8.27
2024-02-29T03:26:55.940Z,8.40
2024-02-29T03:29:25.682Z,7.95
2024-02-29T03:31:55.051Z,7.78
2024-02-29T03:34:25.086Z,7.97
2024-02-29T03:36:55.746Z,8.17
2024-02-29T03:39:25.615Z,8.77
2024-02-29T03:41:54.614Z,8.57
2024-02-29T03:44:23.595Z,8.98
2024-02-29T03:46:54.042Z,8.90
2024-02-29T03:49:22.648Z,8.73
2024-02-29T03:51:53.618Z,8.57
2024-02-29T03:54:22.666Z,9.18
2024-02-29T03:56:51.186Z,7.72
2024-02-29T03:59:22.372Z,8.65
2024-02-29T04:01:55.307Z,10.57
2024-02-29T04:04:24.274Z,9.02
2024-02-29T04:06:53.905Z,8.60
2024-02-29T04:09:23.788Z,8.15
2024-02-29T04:11:52.245Z,7.88
2024-02-29T04:14:22.355Z,8.17
2024-02-29T04:16:52.618Z,9.10
2024-02-29T04:19:22.454Z,8.45
2024-02-29T04:21:52.443Z,8.70
2024-02-29T04:24:21.890Z,8.80
2024-02-29T04:26:50.602Z,9.17
2024-02-29T04:29:21.542Z,8.73
2024-02-29T04:31:50.430Z,8.85
2024-02-29T04:34:19.796Z,8.75
2024-02-29T04:36:54.929Z,9.10
2024-02-29T04:39:23.089Z,8.90
2024-02-29T04:41:51.795Z,9.32
2024-02-29T04:44:20.973Z,8.50
2024-02-29T04:46:53.266Z,9.15
2024-02-29T04:49:23.164Z,9.52
2024-02-29T04:51:52.892Z,8.80
2024-02-29T04:54:21.525Z,8.98
2024-02-29T04:56:49.815Z,8.80
2024-02-29T04:59:18.279Z,8.77
2024-02-29T05:01:47.443Z,8.25
2024-02-29T05:04:16.453Z,8.93
2024-02-29T05:06:45.048Z,8.57
2024-02-29T05:09:15.319Z,8.32
2024-02-29T05:11:43.871Z,9.15
2024-02-29T05:14:12.248Z,8.23
2024-02-29T05:16:40.910Z,8.13
2024-02-29T05:19:09.464Z,9.05
2024-02-29T05:21:39.326Z,8.55
2024-02-29T05:24:09.253Z,7.68
2024-02-29T05:26:40.303Z,8.18
2024-02-29T05:29:10.622Z,8.40
2024-02-29T05:31:39.980Z,8.05
2024-02-29T05:34:10.585Z,8.50
2024-02-29T05:36:39.485Z,8.13
2024-02-29T05:39:12.271Z,8.10
2024-02-29T05:41:42.720Z,9.87
2024-02-29T05:44:11.537Z,7.57
2024-02-29T05:46:44.498Z,8.77
2024-02-29T05:49:13.761Z,8.27
2024-02-29T05:51:44.089Z,8.70
2024-02-29T05:54:12.928Z,9.27
2024-02-29T05:56:44.157Z,8.55
2024-02-29T05:59:15.606Z,7.88
2024-02-29T06:01:49.346Z,8.82
2024-02-29T06:04:18.494Z,9.35
2024-02-29T06:06:49.843Z,9.70
2024-02-29T06:09:20.602Z,9.80
2024-02-29T06:11:50.717Z,10.40
2024-02-29T06:14:19.726Z,9.00
2024-02-29T06:16:51.341Z,9.32
2024-02-29T06:19:20.513Z,8.20
2024-02-29T06:21:52.349Z,9.73
2024-02-29T06:24:21.290Z,8.57
2024-02-29T06:26:51.018Z,8.82
2024-02-29T06:29:19.288Z,10.05
2024-02-29T06:31:48.621Z,10.43
2024-02-29T06:34:18.333Z,8.45
2024-02-29T06:36:50.198Z,8.73
2024-02-29T06:39:18.747Z,9.57
2024-02-29T06:41:50.173Z,8.52
2024-02-29T06:44:20.824Z,8.63
2024-02-29T06:46:50.717Z,8.55
2024-02-29T06:49:21.601Z,9.25
2024-02-29T06:51:49.916Z,8.48
2024-02-29T06:54:19.218Z,8.38
2024-02-29T06:56:49.034Z,8.03
2024-02-29T06:59:17.454Z,8.38
2024-02-29T07:01:49.157Z,7.78
2024-02-29T07:04:17.621Z,7.18
2024-02-29T07:06:46.313Z,7.25
2024-02-29T07:09:15.454Z,9.03
2024-02-29T07:11:43.641Z,8.55
2024-02-29T07:14:13.419Z,8.80
2024-02-29T07:16:44.144Z,8.38
2024-02-29T07:19:15.950Z,8.05
2024-02-29T07:21:44.325Z,8.07
2024-02-29T07:24:14.002Z,8.63
2024-02-29T07:26:43.237Z,8.35
2024-02-29T07:29:13.745Z,8.15
2024-02-29T07:31:43.975Z,8.32
2024-02-29T07:34:12.544Z,8.57
2024-02-29T07:36:43.292Z,7.88
2024-02-29T07:39:18.822Z,7.72
2024-02-29T07:41:49.034Z,8.27
2024-02-29T07:44:17.351Z,7.97
2024-02-29T07:46:46.144Z,7.70
2024-02-29T07:49:14.707Z,8.50
2024-02-29T07:51:44.725Z,8.45
2024-02-29T07:54:13.605Z,8.77
2024-02-29T07:56:43.395Z,8.27
2024-02-29T07:59:12.122Z,8.37
2024-02-29T08:01:41.438Z,7.68
2024-02-29T08:04:11.076Z,8.57
2024-02-29T08:06:39.922Z,9.43
2024-02-29T08:09:10.854Z,8.50
2024-02-29T08:11:42.271Z,8.23
2024-02-29T08:14:10.787Z,8.73
2024-02-29T08:16:42.010Z,8.07
2024-02-29T08:19:10.767Z,7.63
2024-02-29T08:21:40.732Z,7.70
2024-02-29T08:24:11.763Z,8.20
2024-02-29T08:26:40.229Z,7.80
2024-02-29T08:29:09.309Z,8.10
2024-02-29T08:31:37.884Z,8.35
2024-02-29T08:34:07.420Z,7.72
2024-02-29T08:36:36.342Z,7.73
2024-02-29T08:39:04.997Z,4.43
2024-02-29T08:41:34.847Z,2.90
2024-02-29T08:44:04.500Z,3.20
2024-02-29T08:46:32.951Z,2.35
2024-02-29T08:49:03.932Z,2.80
2024-02-29T08:51:32.921Z,2.88
2024-02-29T08:54:01.612Z,2.35
2024-02-29T08:56:30.027Z,2.47
2024-02-29T08:59:00.372Z,2.60
2024-02-29T09:01:29.981Z,2.50
2024-02-29T09:03:58.511Z,2.70
2024-02-29T09:06:38.862Z,2.83
2024-02-29T09:09:10.288Z,2.30
2024-02-29T09:11:40.208Z,2.65
2024-02-29T09:14:10.150Z,2.90
2024-02-29T09:16:38.704Z,2.78
2024-02-29T09:19:07.437Z,2.42
2024-02-29T09:21:37.171Z,2.75
2024-02-29T09:24:06.896Z,3.10
2024-02-29T09:26:37.055Z,3.33
2024-02-29T09:29:07.738Z,3.42
2024-02-29T09:31:38.592Z,3.00
2024-02-29T09:34:08.755Z,2.88
2024-02-29T09:36:38.918Z,3.55
2024-02-29T09:39:07.642Z,4.07
2024-02-29T09:44:12.929Z,3.50
2024-02-29T09:46:47.984Z,3.30
2024-02-29T09:49:16.956Z,3.50
2024-02-29T09:51:47.356Z,3.83
2024-02-29T09:54:21.060Z,3.10
2024-02-29T09:56:50.132Z,3.10
2024-02-29T09:59:21.212Z,3.88
2024-02-29T10:01:54.112Z,4.10
2024-02-29T10:04:22.946Z,3.40
2024-02-29T10:06:51.868Z,3.40
2024-02-29T10:09:22.396Z,3.63
2024-02-29T10:11:50.790Z,3.75
2024-02-29T10:14:23.188Z,4.22
2024-02-29T10:16:53.652Z,4.63
2024-02-29T10:19:22.785Z,3.90
2024-02-29T10:21:51.956Z,3.60
2024-02-29T10:24:22.717Z,3.50
2024-02-29T10:26:51.980Z,3.38
2024-02-29T10:29:23.984Z,3.57
2024-02-29T10:31:54.874Z,3.25
2024-02-29T10:34:23.844Z,3.30
2024-02-29T10:36:52.587Z,3.17
2024-02-29T10:39:21.252Z,3.75
2024-02-29T10:41:52.395Z,3.10
2024-02-29T10:44:24.135Z,3.80
2024-02-29T10:46:57.441Z,3.50
2024-02-29T10:49:32.887Z,3.53
2024-02-29T10:52:09.025Z,3.70
2024-02-29T10:54:41.699Z,3.97
2024-02-29T10:57:19.124Z,3.28
2024-02-29T10:59:54.808Z,3.10
2024-02-29T11:02:25.393Z,4.60
2024-02-29T11:04:56.673Z,5.75
2024-02-29T11:07:27.443Z,5.07
2024-02-29T11:09:56.196Z,5.53
2024-02-29T11:12:29.588Z,5.80
2024-02-29T11:15:00.498Z,5.53
2024-02-29T11:17:33.787Z,5.63
2024-02-29T11:20:04.896Z,6.27
2024-02-29T11:22:35.781Z,6.40
2024-02-29T11:25:11.014Z,5.88
2024-02-29T11:27:40.257Z,5.78
2024-02-29T11:30:11.766Z,6.88
2024-02-29T11:32:44.073Z,5.77
2024-02-29T11:35:16.114Z,6.20
2024-02-29T11:37:45.993Z,6.15
2024-02-29T11:40:17.453Z,5.32
2024-02-29T11:42:48.936Z,5.88
2024-02-29T11:45:23.961Z,5.53
2024-02-29T11:47:57.623Z,5.43
2024-02-29T11:50:27.173Z,5.50
2024-02-29T11:53:02.489Z,5.25
2024-02-29T11:55:32.425Z,5.30
2024-02-29T11:58:07.255Z,4.97
2024-02-29T12:00:38.853Z,5.60
2024-02-29T12:03:11.991Z,4.78
2024-02-29T12:05:40.968Z,5.47
2024-02-29T12:08:10.691Z,4.85
2024-02-29T12:10:42.048Z,5.47
2024-02-29T12:13:10.756Z,5.15
2024-02-29T12:15:40.859Z,4.85
2024-02-29T12:18:14.647Z,4.95
2024-02-29T12:20:43.139Z,5.40
2024-02-29T12:23:15.780Z,5.10
2024-02-29T12:25:45.631Z,5.50
2024-02-29T12:28:19.068Z,4.43
2024-02-29T12:30:51.339Z,5.72
2024-02-29T12:33:24.523Z,5.30
2024-02-29T12:35:54.612Z,5.77
2024-02-29T12:38:25.098Z,5.40
2024-02-29T12:40:56.142Z,5.20
2024-02-29T12:43:26.150Z,5.10
2024-02-29T12:45:58.983Z,4.97
2024-02-29T12:48:29.410Z,5.37
2024-02-29T12:51:03.460Z,4.90
2024-02-29T12:53:31.892Z,4.90
2024-02-29T12:56:01.914Z,5.40
2024-02-29T12:58:32.281Z,4.35
2024-02-29T13:01:07.837Z,5.20
2024-02-29T13:03:38.444Z,4.78
2024-02-29T13:06:08.205Z,5.25
2024-02-29T13:08:36.671Z,4.80
2024-02-29T13:11:05.266Z,5.22
2024-02-29T13:13:34.167Z,4.93
2024-02-29T13:16:05.703Z,4.57
2024-02-29T13:18:34.722Z,5.72
2024-02-29T13:21:06.331Z,6.05
2024-02-29T13:23:36.123Z,4.93
2024-02-29T13:26:06.131Z,5.37
2024-02-29T13:28:34.887Z,5.07
2024-02-29T13:31:03.739Z,5.70
2024-02-29T13:33:32.260Z,5.85
2024-02-29T13:36:00.628Z,5.00
2024-02-29T13:38:31.654Z,5.10
2024-02-29T13:41:00.443Z,5.30
2024-02-29T13:43:29.465Z,4.97
2024-02-29T13:45:57.937Z,4.63
2024-02-29T13:48:27.053Z,5.00
2024-02-29T13:50:55.515Z,4.67
2024-02-29T13:53:24.094Z,4.55
2024-02-29T13:55:54.101Z,5.10
2024-02-29T13:58:22.918Z,6.10
2024-02-29T14:00:51.581Z,5.07
2024-02-29T14:03:20.580Z,4.93
2024-02-29T14:05:51.014Z,4.70
2024-02-29T14:08:27.572Z,5.20
2024-02-29T14:10:58.853Z,5.32
2024-02-29T14:13:30.698Z,5.63
2024-02-29T14:15:59.388Z,5.47
2024-02-29T14:18:27.960Z,5.53
2024-02-29T14:20:59.395Z,6.00
2024-02-29T14:23:30.931Z,5.28
2024-02-29T14:26:03.846Z,5.05
2024-02-29T14:28:32.793Z,4.63
2024-02-29T14:31:01.670Z,5.22
2024-02-29T14:33:30.102Z,5.25
2024-02-29T14:36:01.341Z,4.88
2024-02-29T14:38:30.017Z,5.63
2024-02-29T14:41:02.799Z,4.90
2024-02-29T14:43:31.472Z,5.82
2024-02-29T14:46:05.598Z,4.53
2024-02-29T14:48:36.337Z,5.40
2024-02-29T14:51:05.327Z,5.32
2024-02-29T14:53:37.104Z,5.10
2024-02-29T14:56:07.941Z,5.05
2024-02-29T14:58:36.673Z,5.55
2024-02-29T15:01:10.520Z,5.38
2024-02-29T15:03:41.590Z,5.10
2024-02-29T15:06:12.666Z,4.93
2024-02-29T15:08:42.512Z,5.05
2024-02-29T15:11:14.013Z,5.25
2024-02-29T15:13:48.264Z,5.30
2024-02-29T15:16:17.842Z,4.68
2024-02-29T15:18:47.061Z,4.50
2024-02-29T15:21:15.677Z,4.18
2024-02-29T15:23:45.907Z,4.22
2024-02-29T15:26:16.599Z,5.00
2024-02-29T15:28:51.040Z,5.05
2024-02-29T15:31:20.876Z,4.73
2024-02-29T15:33:50.556Z,4.80
2024-02-29T15:36:19.229Z,4.63
2024-02-29T15:38:50.601Z,4.93
2024-02-29T15:41:21.416Z,4.20
2024-02-29T15:43:49.915Z,4.90
2024-02-29T15:46:21.547Z,4.05
2024-02-29T15:48:51.261Z,4.80
2024-02-29T15:51:20.053Z,5.10
2024-02-29T15:53:48.420Z,4.28
2024-02-29T15:56:17.605Z,4.17
2024-02-29T15:58:47.780Z,4.82
2024-02-29T16:01:17.121Z,4.68
2024-02-29T16:03:45.874Z,3.90
2024-02-29T16:06:15.631Z,4.97
2024-02-29T16:08:44.536Z,4.80
2024-02-29T16:11:15.299Z,5.40
2024-02-29T16:13:44.878Z,4.25
2024-02-29T16:16:16.080Z,4.40
2024-02-29T16:18:44.432Z,5.75
2024-02-29T16:21:14.256Z,5.87
2024-02-29T16:23:44.937Z,6.10
2024-02-29T16:26:14.864Z,7.30
2024-02-29T16:28:45.481Z,7.10
2024-02-29T16:31:16.281Z,6.97
2024-02-29T16:33:45.355Z,6.67
2024-02-29T16:36:15.055Z,6.55
2024-02-29T16:38:43.864Z,7.28
2024-02-29T16:41:15.491Z,7.50
2024-02-29T16:43:43.980Z,7.85
2024-02-29T16:46:12.671Z,7.13
2024-02-29T16:48:42.898Z,7.63
2024-02-29T16:51:12.869Z,7.38
2024-02-29T16:53:41.438Z,7.55
2024-02-29T16:56:10.438Z,7.78
2024-02-29T16:58:43.059Z,7.77
2024-02-29T17:01:11.969Z,7.90
2024-02-29T17:03:44.368Z,8.10
2024-02-29T17:06:13.497Z,8.10
2024-02-29T17:08:41.767Z,7.25
2024-02-29T17:11:10.816Z,7.80
2024-02-29T17:13:47.002Z,7.47
2024-02-29T17:16:15.736Z,7.25
2024-02-29T17:18:50.490Z,7.00
2024-02-29T17:21:19.937Z,6.63
2024-02-29T17:23:48.646Z,7.60
2024-02-29T17:26:20.515Z,7.50
2024-02-29T17:28:52.911Z,8.07
2024-02-29T17:31:23.463Z,7.20
2024-02-29T17:33:57.430Z,7.70
2024-02-29T17:36:47.802Z,8.30
2024-02-29T17:39:38.182Z,8.07
2024-02-29T17:42:29.656Z,7.55
2024-02-29T17:45:17.610Z,7.93
2024-02-29T17:48:05.542Z,7.47
2024-02-29T17:50:54.329Z,8.27
2024-02-29T17:53:50.977Z,7.82
2024-02-29T17:56:38.087Z,9.00
2024-02-29T17:59:25.913Z,7.97
2024-02-29T18:02:17.266Z,8.77
2024-02-29T18:05:10.619Z,8.23
2024-02-29T18:08:06.862Z,8.23
2024-02-29T18:10:59.150Z,7.18
2024-02-29T18:13:46.778Z,8.52
2024-02-29T18:16:36.223Z,7.72
2024-02-29T18:19:23.903Z,8.93
2024-02-29T18:22:11.479Z,9.45
2024-02-29T18:25:00.703Z,8.35
2024-02-29T18:27:50.844Z,8.90
2024-02-29T18:30:39.241Z,9.63
2024-02-29T18:33:27.565Z,8.60
2024-02-29T18:36:15.603Z,9.27
2024-02-29T18:39:04.585Z,8.52
2024-02-29T18:41:56.706Z,8.43
2024-02-29T18:44:45.862Z,8.55
2024-02-29T18:47:35.955Z,8.60
2024-02-29T18:50:29.607Z,9.05
2024-02-29T18:53:11.218Z,8.77
2024-02-29T18:55:44.099Z,8.43
2024-02-29T18:58:17.236Z,9.13
2024-02-29T19:00:48.337Z,9.37
2024-02-29T19:03:25.029Z,9.30
2024-02-29T19:05:56.372Z,9.13
2024-02-29T19:08:25.756Z,8.80
2024-02-29T19:10:58.794Z,9.30
2024-02-29T19:13:48.725Z,8.23
2024-02-29T19:16:18.910Z,9.07
2024-02-29T19:18:48.099Z,8.75
2024-02-29T19:21:17.192Z,8.55
2024-02-29T19:23:46.035Z,8.07
2024-02-29T19:26:24.266Z,8.40
2024-02-29T19:28:57.642Z,8.50
2024-02-29T19:31:27.615Z,8.90
2024-02-29T19:33:56.695Z,8.27
2024-02-29T19:36:28.968Z,8.60
2024-02-29T19:39:00.741Z,8.50
2024-02-29T19:41:35.464Z,8.63
2024-02-29T19:44:26.207Z,7.00
2024-02-29T19:46:59.018Z,6.55
2024-02-29T19:49:31.921Z,6.07
2024-02-29T19:52:03.074Z,5.73
2024-02-29T19:54:32.684Z,5.20
2024-02-29T19:57:01.646Z,5.57
2024-02-29T19:59:32.055Z,5.28
2024-02-29T20:02:01.513Z,5.90
2024-02-29T20:04:31.108Z,5.10
2024-02-29T20:07:10.435Z,5.35
2024-02-29T20:09:39.513Z,6.22
2024-02-29T20:12:18.120Z,6.50
2024-02-29T20:14:51.219Z,7.20
2024-02-29T20:17:25.866Z,7.80
2024-02-29T20:19:57.707Z,8.02
2024-02-29T20:22:28.660Z,8.43
2024-02-29T20:24:59.143Z,8.40
2024-02-29T20:27:28.175Z,8.50
2024-02-29T20:30:14.265Z,9.47
2024-02-29T20:32:45.364Z,8.82
2024-02-29T20:35:17.804Z,8.68
2024-02-29T20:37:47.058Z,8.70
2024-02-29T20:40:18.239Z,8.82
2024-02-29T20:42:47.710Z,6.97
2024-02-29T20:45:18.063Z,7.55
2024-02-29T20:47:47.417Z,8.10
2024-02-29T20:50:16.630Z,8.07
2024-02-29T20:52:45.929Z,7.53
2024-02-29T20:55:16.296Z,8.10
2024-02-29T20:57:49.796Z,9.38
2024-02-29T21:00:22.355Z,7.95
2024-02-29T21:02:52.267Z,8.75
2024-02-29T21:05:23.115Z,8.50
2024-02-29T21:07:56.994Z,8.60
2024-02-29T21:10:30.125Z,8.70
2024-02-29T21:13:02.085Z,8.00
2024-02-29T21:15:34.110Z,8.85
2024-02-29T21:18:04.907Z,8.50
2024-02-29T21:20:35.796Z,8.40
2024-02-29T21:23:10.839Z,8.88
2024-02-29T21:25:43.481Z,8.35
2024-02-29T21:28:16.834Z,9.00
2024-02-29T21:30:49.302Z,8.90
2024-02-29T21:33:21.697Z,8.57
2024-02-29T21:35:51.587Z,8.35
2024-02-29T21:38:20.563Z,11.05
2024-02-29T21:40:52.512Z,13.90
2024-02-29T21:43:26.975Z,12.93
2024-02-29T21:45:57.589Z,11.27
2024-02-29T21:48:26.828Z,9.38
2024-02-29T21:50:56.770Z,9.50
2024-02-29T21:53:31.430Z,8.13
2024-02-29T21:56:05.957Z,8.93
2024-02-29T21:58:43.312Z,9.37
2024-02-29T22:01:13.805Z,8.93
2024-02-29T22:03:43.443Z,9.20
2024-02-29T22:06:12.846Z,8.57
2024-02-29T22:08:46.618Z,9.30
2024-02-29T22:11:19.460Z,9.43
2024-02-29T22:13:48.093Z,9.10
2024-02-29T22:16:18.679Z,9.07
2024-02-29T22:18:48.464Z,8.43
2024-02-29T22:21:17.240Z,9.30
2024-02-29T22:23:45.717Z,9.43
2024-02-29T22:26:14.614Z,10.43
2024-02-29T22:28:43.918Z,9.68
2024-02-29T22:31:13.512Z,9.88
2024-02-29T22:33:53.826Z,8.60
2024-02-29T22:36:22.874Z,10.33
2024-02-29T22:38:51.524Z,9.63
2024-02-29T22:41:25.287Z,10.00
2024-02-29T22:43:54.047Z,9.15
2024-02-29T22:46:23.307Z,9.98
2024-02-29T22:48:54.392Z,10.13
2024-02-29T22:51:27.288Z,9.85
2024-02-29T22:53:56.277Z,9.40
2024-02-29T22:56:26.537Z,10.68
2024-02-29T22:58:55.248Z,10.18
2024-02-29T23:01:27.368Z,10.30
2024-02-29T23:03:59.416Z,10.38
2024-02-29T23:06:31.512Z,9.93
2024-02-29T23:09:10.577Z,10.73
2024-02-29T23:11:44.886Z,11.15
2024-02-29T23:14:20.530Z,9.70
2024-02-29T23:16:52.493Z,10.18
2024-02-29T23:19:25.816Z,9.68
2024-02-29T23:22:05.597Z,9.45
2024-02-29T23:24:34.874Z,10.77
2024-02-29T23:27:04.352Z,9.60
2024-02-29T23:29:32.933Z,10.40
2024-02-29T23:32:01.555Z,10.75
2024-02-29T23:34:46.077Z,11.35
2024-02-29T23:37:15.203Z,10.82
2024-02-29T23:39:44.102Z,10.53
2024-02-29T23:42:13.025Z,10.77
2024-02-29T23:44:44.562Z,9.88
2024-02-29T23:47:13.649Z,9.50
2024-02-29T23:49:44.261Z,10.05
2024-02-29T23:52:13.275Z,10.40
2024-02-29T23:54:42.045Z,10.15
2024-02-29T23:57:10.577Z,10.13
2024-02-29T23:59:45.323Z,10.82
